Time;durP1;ratioP1;P1;durP2;ratioP2;P2;SDS_P1;SDS_P2;PMS_P1;PMS_P2;Temp;Humidity;BMP_temperature;BMP_pressure;BME280_temperature;BME280_humidity;BME280_pressure;Samples;Min_cycle;Max_cycle;Signal;HPM_P1;HPM_P2
2021/12/22 00:00:36;;;;;;;5.47;3.38;;;;;;;-3.09;56.12;95144.78;5053576;28;20017;-82
2021/12/22 00:03:04;;;;;;;5.78;3.47;;;;;;;-2.97;56.32;95141.72;5053374;28;20351;-82
2021/12/22 00:05:31;;;;;;;7.40;3.70;;;;;;;-2.83;55.54;95145.50;5053526;28;20025;-81
2021/12/22 00:07:56;;;;;;;10.23;5.70;;;;;;;-2.86;57.33;95146.22;5057011;28;20020;-82
2021/12/22 00:10:22;;;;;;;19.75;10.93;;;;;;;-3.00;60.62;95147.81;5056943;28;20044;-81
2021/12/22 00:12:50;;;;;;;29.38;14.10;;;;;;;-3.11;63.38;95134.53;5057035;28;20025;-81
2021/12/22 00:15:16;;;;;;;32.20;14.68;;;;;;;-3.81;66.50;95139.47;5057202;28;20373;-81
2021/12/22 00:17:42;;;;;;;30.80;15.93;;;;;;;-4.00;69.00;95128.06;5057274;28;20450;-81
2021/12/22 00:20:09;;;;;;;30.17;15.98;;;;;;;-4.09;69.03;95117.06;5056948;28;20090;-82
2021/12/22 00:22:35;;;;;;;29.17;15.65;;;;;;;-3.99;70.53;95128.84;5057078;28;20044;-82
2021/12/22 00:25:02;;;;;;;28.58;14.68;;;;;;;-3.99;70.03;95134.91;5057108;28;20027;-81
2021/12/22 00:27:28;;;;;;;29.90;14.13;;;;;;;-3.84;68.93;95137.59;5057054;28;20107;-83
2021/12/22 00:29:54;;;;;;;26.42;13.10;;;;;;;-4.09;70.23;95143.59;5056828;28;20117;-82
2021/12/22 00:32:20;;;;;;;26.25;13.73;;;;;;;-4.27;71.24;95130.28;5055760;28;20520;-81
2021/12/22 00:34:50;;;;;;;25.35;12.90;;;;;;;-4.59;72.44;95130.97;5055963;28;20021;-81
2021/12/22 00:37:24;;;;;;;26.13;14.00;;;;;;;-4.71;72.08;95134.69;5056840;28;20064;-81
2021/12/22 00:39:51;;;;;;;25.48;13.40;;;;;;;-4.51;72.78;95147.63;5056907;28;20091;-81
2021/12/22 00:42:17;;;;;;;29.83;14.88;;;;;;;-4.69;73.95;95153.63;5056511;28;20464;-80
2021/12/22 00:44:46;;;;;;;37.30;16.25;;;;;;;-5.13;75.22;95146.56;5055657;28;20439;-82
2021/12/22 00:47:12;;;;;;;32.45;14.77;;;;;;;-5.13;76.09;95157.16;5055358;28;20515;-81
2021/12/22 00:49:37;;;;;;;31.45;15.00;;;;;;;-5.37;76.48;95155.84;5056389;28;20099;-81
2021/12/22 00:52:04;;;;;;;37.38;15.10;;;;;;;-5.10;75.89;95143.19;5056393;28;20389;-81
2021/12/22 00:54:30;;;;;;;29.30;14.90;;;;;;;-4.89;74.92;95155.03;5056388;28;20029;-80
2021/12/22 00:57:02;;;;;;;30.27;15.40;;;;;;;-5.30;77.64;95159.31;5056440;28;20040;-80
2021/12/22 00:59:27;;;;;;;35.20;16.80;;;;;;;-5.37;78.52;95159.28;5056696;28;20373;-82
2021/12/22 01:01:53;;;;;;;36.53;16.88;;;;;;;-5.46;79.51;95146.34;5054995;28;20025;-81
2021/12/22 01:04:18;;;;;;;37.55;17.13;;;;;;;-5.23;77.73;95155.22;5055004;28;20425;-80
2021/12/22 01:06:45;;;;;;;40.47;17.13;;;;;;;-5.55;79.81;95143.25;5056115;28;20025;-81
2021/12/22 01:09:11;;;;;;;37.55;17.40;;;;;;;-5.03;78.00;95147.75;5055976;28;20052;-80
2021/12/22 01:11:36;;;;;;;35.50;16.75;;;;;;;-4.93;77.76;95147.06;5056122;28;20048;-81
2021/12/22 01:14:03;;;;;;;37.05;16.05;;;;;;;-5.21;77.84;95140.47;5056013;28;20518;-81
2021/12/22 01:16:28;;;;;;;36.78;15.80;;;;;;;-5.09;78.18;95142.06;5056263;28;20029;-80
2021/12/22 01:18:55;;;;;;;33.53;16.33;;;;;;;-5.29;79.14;95134.38;5056671;28;20117;-81
2021/12/22 01:21:35;;;;;;;35.47;17.02;;;;;;;-5.09;78.73;95142.81;5057862;28;20028;-80
2021/12/22 01:26:33;;;;;;;34.50;15.55;;;;;;;-4.95;77.70;95131.56;5062166;28;20400;-81
2021/12/22 01:29:00;;;;;;;31.10;16.30;;;;;;;-4.80;76.77;95121.03;5056912;28;20029;-80
2021/12/22 01:31:25;;;;;;;32.60;16.33;;;;;;;-4.63;75.29;95133.59;5055567;28;20673;-81
2021/12/22 01:33:51;;;;;;;34.70;15.32;;;;;;;-4.58;76.23;95140.44;5055683;28;20055;-81
2021/12/22 01:36:16;;;;;;;30.90;16.13;;;;;;;-4.78;76.74;95139.97;5055288;28;20041;-80
2021/12/22 01:38:42;;;;;;;28.67;15.75;;;;;;;-4.68;77.20;95130.53;5055468;28;20043;-81
2021/12/22 01:41:07;;;;;;;36.53;16.60;;;;;;;-4.82;77.17;95128.59;5055243;28;20020;-81
2021/12/22 01:43:33;;;;;;;39.25;17.70;;;;;;;-5.02;78.26;95130.75;5055223;28;20025;-80
2021/12/22 01:51:28;;;;;;;34.67;17.08;;;;;;;-5.31;80.40;95126.03;5055678;28;20040;-80
2021/12/22 01:53:59;;;;;;;40.17;18.15;;;;;;;-5.27;80.58;95126.81;5055267;28;20195;-82
2021/12/22 01:56:27;;;;;;;43.83;19.42;;;;;;;-5.19;80.15;95116.31;5054276;28;20021;-81
2021/12/22 01:58:56;;;;;;;47.97;20.70;;;;;;;-5.00;79.16;95121.31;5055194;28;20033;-80
2021/12/22 02:01:23;;;;;;;46.63;20.60;;;;;;;-5.01;78.40;95121.69;5055231;28;20032;-81
2021/12/22 02:03:51;;;;;;;42.95;19.65;;;;;;;-5.27;78.90;95112.84;5053899;28;20036;-80
2021/12/22 02:06:17;;;;;;;49.95;20.77;;;;;;;-5.64;80.97;95114.47;5054933;28;20029;-81
2021/12/22 02:08:44;;;;;;;44.42;21.30;;;;;;;-5.54;82.35;95117.56;5055052;28;20415;-81
2021/12/22 02:11:11;;;;;;;55.05;23.13;;;;;;;-5.81;82.62;95120.38;5054627;28;20423;-81
2021/12/22 02:13:41;;;;;;;62.20;25.27;;;;;;;-5.99;83.97;95105.16;5053976;28;20449;-81
2021/12/22 02:16:11;;;;;;;57.38;25.67;;;;;;;-5.90;85.22;95115.41;5054557;28;20041;-82
2021/12/22 02:18:41;;;;;;;55.65;24.42;;;;;;;-5.77;84.24;95102.66;5054515;28;20033;-81
2021/12/22 02:21:07;;;;;;;53.85;24.70;;;;;;;-5.41;82.61;95110.09;5054516;28;20094;-82
2021/12/22 02:23:34;;;;;;;53.88;22.65;;;;;;;-5.51;83.19;95101.69;5053440;28;20029;-81
2021/12/22 02:26:14;;;;;;;47.78;22.33;;;;;;;-5.45;82.65;95112.72;5054728;28;20517;-81
2021/12/22 02:28:45;;;;;;;52.22;21.73;;;;;;;-5.72;83.03;95107.63;5053744;28;20170;-81
2021/12/22 02:31:14;;;;;;;46.42;21.63;;;;;;;-5.77;83.40;95102.66;5054848;28;20032;-81
2021/12/22 02:33:42;;;;;;;54.42;24.00;;;;;;;-5.98;85.43;95104.03;5054469;28;20029;-81
2021/12/22 02:36:34;;;;;;;55.13;23.50;;;;;;;-5.96;84.25;95098.34;5053222;28;20032;-82
2021/12/22 02:39:01;;;;;;;53.58;24.13;;;;;;;-6.29;86.25;95087.50;5054221;28;20448;-81
2021/12/22 02:41:29;;;;;;;58.63;25.77;;;;;;;-5.71;84.28;95095.91;5054461;28;20040;-81
2021/12/22 02:43:57;;;;;;;60.67;25.00;;;;;;;-5.62;83.35;95096.38;5054363;28;20181;-81
2021/12/22 02:46:32;;;;;;;50.42;22.27;;;;;;;-5.73;83.73;95090.22;5054083;28;20032;-81
2021/12/22 02:49:00;;;;;;;55.40;22.30;;;;;;;-5.52;82.32;95094.13;5054214;28;20029;-82
2021/12/22 02:51:28;;;;;;;51.10;22.58;;;;;;;-5.56;82.70;95088.06;5053920;28;20094;-81
2021/12/22 02:54:06;;;;;;;45.90;20.67;;;;;;;-5.68;82.37;95089.13;5054002;28;20049;-81
2021/12/22 02:56:38;;;;;;;41.13;19.75;;;;;;;-5.61;81.74;95097.88;5054199;28;20079;-81
2021/12/22 03:04:07;;;;;;;54.78;23.02;;;;;;;-5.92;83.08;95090.44;5053821;28;20028;-81
2021/12/22 03:06:45;;;;;;;54.05;23.70;;;;;;;-5.84;82.53;95098.06;5053765;28;20025;-81
2021/12/22 03:09:18;;;;;;;52.90;23.40;;;;;;;-5.94;83.00;95096.09;5054189;28;20094;-81
2021/12/22 03:11:44;;;;;;;55.92;24.40;;;;;;;-5.94;82.56;95102.16;5053595;28;20055;-82
2021/12/22 03:14:10;;;;;;;55.08;23.63;;;;;;;-6.11;83.71;95092.19;5053584;28;20029;-82
2021/12/22 03:16:36;;;;;;;70.63;27.77;;;;;;;-6.01;83.29;95086.25;5053495;28;20060;-81
2021/12/22 03:19:02;;;;;;;65.32;26.45;;;;;;;-5.67;82.03;95096.69;5053804;28;20056;-82
2021/12/22 03:21:29;;;;;;;54.30;21.40;;;;;;;-6.12;83.41;95096.00;5053838;28;20044;-81
2021/12/22 03:23:56;;;;;;;46.00;19.85;;;;;;;-6.18;84.40;95097.44;5053859;28;20031;-81
2021/12/22 03:26:23;;;;;;;44.88;19.33;;;;;;;-6.32;84.79;95088.25;5053431;28;20028;-82
2021/12/22 03:28:50;;;;;;;45.47;18.90;;;;;;;-6.24;84.72;95090.94;5053739;28;20323;-81
2021/12/22 03:31:16;;;;;;;46.00;19.38;;;;;;;-6.17;83.83;95098.97;5053494;28;20036;-82
2021/12/22 03:33:44;;;;;;;43.10;18.85;;;;;;;-6.09;83.47;95103.19;5053391;28;20021;-81
2021/12/22 03:36:10;;;;;;;45.05;18.58;;;;;;;-6.10;83.25;95091.09;5053215;28;20036;-83
2021/12/22 03:38:36;;;;;;;40.33;18.48;;;;;;;-5.98;82.29;95101.38;5053651;28;20029;-81
2021/12/22 03:41:04;;;;;;;43.55;19.50;;;;;;;-5.90;83.13;95090.84;5053088;28;20108;-81
2021/12/22 03:43:29;;;;;;;44.28;18.42;;;;;;;-6.16;83.24;95089.88;5053279;28;20025;-82
2021/12/22 03:45:54;;;;;;;43.28;17.92;;;;;;;-6.36;84.61;95090.09;5053220;28;20086;-81
2021/12/22 03:48:21;;;;;;;37.33;18.27;;;;;;;-6.40;84.79;95086.66;5053146;28;20095;-81
2021/12/22 03:50:47;;;;;;;40.08;18.27;;;;;;;-6.31;84.73;95100.34;5053172;28;20426;-81
2021/12/22 03:53:13;;;;;;;38.05;17.05;;;;;;;-6.43;84.91;95092.66;5053642;28;20362;-81
2021/12/22 03:55:39;;;;;;;38.13;17.00;;;;;;;-5.97;82.93;95102.88;5053106;28;20112;-80
2021/12/22 03:58:04;;;;;;;33.72;15.38;;;;;;;-6.17;83.19;95104.25;5052851;28;20035;-81
2021/12/22 04:00:31;;;;;;;35.30;16.42;;;;;;;-5.94;82.59;95104.03;5052888;28;20024;-81
2021/12/22 04:02:57;;;;;;;32.60;16.70;;;;;;;-6.29;83.58;95102.63;5053055;28;20029;-80
2021/12/22 04:05:23;;;;;;;34.03;16.02;;;;;;;-6.01;82.35;95104.75;5053054;28;20025;-81
2021/12/22 04:07:49;;;;;;;36.00;16.83;;;;;;;-6.04;82.03;95112.66;5053323;28;20089;-81
2021/12/22 04:10:22;;;;;;;37.20;16.70;;;;;;;-6.11;82.44;95108.06;5052658;28;20438;-81
2021/12/22 04:12:52;;;;;;;31.27;15.18;;;;;;;-6.25;82.74;95108.69;5052931;28;20044;-80
2021/12/22 04:15:18;;;;;;;41.63;16.90;;;;;;;-6.62;84.54;95106.81;5052956;28;20024;-80
2021/12/22 04:17:44;;;;;;;34.75;16.25;;;;;;;-6.35;83.96;95115.41;5053683;28;20435;-79
2021/12/22 04:20:10;;;;;;;31.08;15.70;;;;;;;-6.35;83.33;95104.06;5055482;28;20029;-80
2021/12/22 04:22:37;;;;;;;32.97;16.20;;;;;;;-6.43;83.26;95113.81;5056454;28;20025;-81
2021/12/22 04:25:05;;;;;;;35.78;17.13;;;;;;;-6.23;82.86;95116.25;5053140;28;20025;-80
2021/12/22 04:27:30;;;;;;;36.05;18.05;;;;;;;-6.79;86.02;95113.38;5053035;28;20025;-80
2021/12/22 04:29:56;;;;;;;40.47;19.00;;;;;;;-6.43;86.79;95113.03;5052934;28;20037;-80
2021/12/22 04:32:22;;;;;;;40.78;18.70;;;;;;;-6.36;85.54;95108.59;5052679;28;20491;-80
2021/12/22 04:34:47;;;;;;;37.10;17.70;;;;;;;-6.31;84.40;95121.47;5053029;28;20032;-80
2021/12/22 04:37:13;;;;;;;66.53;27.58;;;;;;;-6.56;84.38;95120.44;5052551;28;20036;-81
2021/12/22 04:39:38;;;;;;;38.55;18.92;;;;;;;-6.51;84.38;95123.53;5052508;28;20090;-80
2021/12/22 04:42:04;;;;;;;41.75;16.92;;;;;;;-6.08;81.83;95117.94;5052782;28;20025;-82
2021/12/22 04:44:29;;;;;;;35.17;16.42;;;;;;;-6.36;82.72;95118.41;5052634;28;20351;-81
2021/12/22 04:46:55;;;;;;;33.90;15.30;;;;;;;-6.09;81.05;95115.63;5052557;28;20483;-80
2021/12/22 04:49:20;;;;;;;38.00;15.80;;;;;;;-6.08;81.10;95123.22;5052899;28;20408;-80
2021/12/22 04:51:52;;;;;;;34.78;16.20;;;;;;;-6.19;80.53;95127.63;5051529;28;20482;-80
2021/12/22 04:54:30;;;;;;;33.83;14.80;;;;;;;-6.02;80.30;95136.84;5056427;28;20083;-80
2021/12/22 04:56:57;;;;;;;34.22;15.15;;;;;;;-6.17;80.52;95128.03;5056552;28;20051;-81
2021/12/22 04:59:23;;;;;;;34.92;15.80;;;;;;;-6.28;81.01;95128.66;5056060;28;20108;-80
2021/12/22 05:01:49;;;;;;;31.95;15.32;;;;;;;-6.23;81.50;95132.09;5056370;28;20037;-80
2021/12/22 05:04:14;;;;;;;50.70;20.02;;;;;;;-6.21;80.17;95129.88;5055072;28;20115;-80
2021/12/22 05:06:40;;;;;;;47.17;20.48;;;;;;;-6.47;81.78;95136.78;5056131;28;20044;-81
2021/12/22 05:09:06;;;;;;;43.70;19.33;;;;;;;-5.99;80.11;95130.84;5056186;28;20106;-79
2021/12/22 05:11:34;;;;;;;42.38;16.83;;;;;;;-6.26;80.56;95132.84;5055636;28;20056;-79
2021/12/22 05:14:02;;;;;;;43.55;18.35;;;;;;;-6.17;80.43;95133.31;5055778;28;20097;-79
2021/12/22 05:16:28;;;;;;;37.92;18.60;;;;;;;-6.27;80.16;95134.75;5055581;28;20489;-80
2021/12/22 05:18:58;;;;;;;45.50;18.92;;;;;;;-6.42;81.95;95149.69;5056206;28;20029;-80
2021/12/22 05:21:25;;;;;;;40.20;18.60;;;;;;;-6.32;81.94;95141.09;5056575;28;20431;-80
2021/12/22 05:23:52;;;;;;;36.05;16.67;;;;;;;-5.94;80.86;95160.31;5055423;28;20070;-80
2021/12/22 05:26:18;;;;;;;32.97;15.77;;;;;;;-6.17;82.16;95151.81;5055604;28;20454;-79
2021/12/22 05:28:44;;;;;;;29.23;14.98;;;;;;;-6.21;82.12;95156.31;5055462;28;20514;-79
2021/12/22 05:31:10;;;;;;;32.70;14.50;;;;;;;-6.10;81.33;95157.16;5055592;28;20178;-79
2021/12/22 05:33:35;;;;;;;31.50;14.50;;;;;;;-6.21;81.12;95161.59;5055312;28;20098;-80
2021/12/22 05:36:01;;;;;;;28.48;13.80;;;;;;;-6.11;80.79;95163.56;5054395;28;20029;-80
2021/12/22 05:38:26;;;;;;;29.65;15.23;;;;;;;-6.06;80.08;95150.03;5054536;28;20024;-79
2021/12/22 05:40:52;;;;;;;29.73;15.85;;;;;;;-6.00;80.09;95155.75;5055311;28;20039;-79
2021/12/22 05:43:18;;;;;;;29.92;15.10;;;;;;;-6.11;80.31;95158.28;5055233;28;20044;-79
2021/12/22 05:45:43;;;;;;;35.35;16.40;;;;;;;-6.08;80.38;95162.88;5055192;28;20343;-79
2021/12/22 05:48:09;;;;;;;37.65;17.60;;;;;;;-6.47;80.98;95165.84;5055051;28;20458;-78
2021/12/22 05:50:35;;;;;;;36.35;18.02;;;;;;;-6.44;81.41;95159.81;5055195;28;20025;-79
2021/12/22 05:53:00;;;;;;;39.78;16.50;;;;;;;-6.46;81.53;95167.38;5054840;28;20370;-78
2021/12/22 05:55:26;;;;;;;36.38;17.05;;;;;;;-6.69;83.00;95159.56;5053826;28;20032;-79
2021/12/22 05:57:53;;;;;;;42.88;17.13;;;;;;;-6.83;83.68;95162.75;5054079;28;20033;-79
2021/12/22 06:00:19;;;;;;;40.03;16.88;;;;;;;-6.39;82.18;95159.50;5055017;28;20518;-79
2021/12/22 06:02:44;;;;;;;42.90;17.05;;;;;;;-6.26;81.29;95169.84;5053869;28;20032;-80
2021/12/22 06:05:10;;;;;;;37.30;15.70;;;;;;;-6.22;81.07;95165.34;5053715;28;20020;-79
2021/12/22 06:07:36;;;;;;;27.52;13.95;;;;;;;-6.28;81.61;95168.31;5055052;28;20025;-80
2021/12/22 06:10:04;;;;;;;32.63;13.75;;;;;;;-6.30;81.33;95175.84;5054636;28;20032;-80
2021/12/22 06:12:29;;;;;;;29.83;13.27;;;;;;;-6.33;81.22;95165.22;5054478;28;20048;-80
2021/12/22 06:14:55;;;;;;;29.50;12.43;;;;;;;-6.15;79.52;95176.00;5054507;28;20036;-79
2021/12/22 06:17:20;;;;;;;29.48;15.65;;;;;;;-6.23;79.95;95167.25;5054605;28;20543;-79
2021/12/22 06:19:46;;;;;;;34.92;15.82;;;;;;;-6.25;79.88;95176.66;5054556;28;20470;-80
2021/12/22 06:22:11;;;;;;;27.33;15.38;;;;;;;-6.02;79.36;95185.19;5054546;28;20028;-79
2021/12/22 06:24:37;;;;;;;35.72;15.23;;;;;;;-5.68;78.82;95193.03;5057768;28;20067;-80
2021/12/22 06:27:03;;;;;;;29.20;14.85;;;;;;;-5.84;78.29;95193.28;5056986;28;20043;-80
2021/12/22 06:29:29;;;;;;;31.15;13.68;;;;;;;-5.69;77.59;95188.88;5056666;28;20067;-79
2021/12/22 06:31:54;;;;;;;30.45;14.20;;;;;;;-5.74;77.45;95191.84;5055742;28;20327;-82
2021/12/22 06:34:20;;;;;;;29.05;13.43;;;;;;;-5.54;77.04;95196.94;5055104;28;20048;-79
2021/12/22 06:36:45;;;;;;;29.42;13.18;;;;;;;-5.65;78.39;95194.19;5054209;28;20537;-79
2021/12/22 06:39:11;;;;;;;28.80;12.90;;;;;;;-4.83;74.58;95201.22;5054284;28;20025;-77
2021/12/22 06:41:37;;;;;;;23.63;11.23;;;;;;;-5.00;73.81;95197.34;5054438;28;20033;-79
2021/12/22 06:44:05;;;;;;;20.88;11.80;;;;;;;-4.72;71.88;95196.00;5054558;28;20020;-77
2021/12/22 06:46:30;;;;;;;26.60;12.80;;;;;;;-4.57;71.34;95194.94;5053388;28;20346;-78
2021/12/22 06:48:56;;;;;;;32.80;16.48;;;;;;;-4.32;70.60;95200.34;5054423;28;20032;-75
2021/12/22 06:51:21;;;;;;;43.65;19.35;;;;;;;-4.40;72.15;95201.47;5054414;28;20097;-79
2021/12/22 06:53:47;;;;;;;30.48;15.00;;;;;;;-4.53;71.06;95187.75;5054584;28;20036;-77
2021/12/22 06:56:12;;;;;;;40.05;17.13;;;;;;;-4.07;70.07;95202.31;5055469;28;20029;-78
2021/12/22 06:58:38;;;;;;;38.28;15.85;;;;;;;-4.46;70.85;95205.59;5054221;28;20036;-78
2021/12/22 07:01:03;;;;;;;23.50;13.18;;;;;;;-4.52;71.36;95193.84;5054333;28;20052;-80
2021/12/22 07:03:29;;;;;;;26.92;13.23;;;;;;;-4.41;71.04;95199.94;5054629;28;20020;-80
2021/12/22 07:05:55;;;;;;;24.52;12.95;;;;;;;-3.92;69.88;95211.84;5054015;28;20025;-72
2021/12/22 07:08:21;;;;;;;25.25;13.30;;;;;;;-3.34;67.84;95214.59;5054687;28;20028;-83
2021/12/22 07:10:46;;;;;;;30.20;13.45;;;;;;;-3.26;67.29;95208.16;5056909;28;20053;-86
2021/12/22 07:13:14;;;;;;;31.48;14.90;;;;;;;-3.02;66.14;95216.47;5057546;28;20100;-82
2021/12/22 07:15:40;;;;;;;30.98;14.88;;;;;;;-2.94;65.71;95220.66;5064718;28;20123;-81
2021/12/22 07:18:10;;;;;;;33.00;14.40;;;;;;;-2.44;64.06;95219.03;5059916;28;20040;-80
2021/12/22 07:20:36;;;;;;;36.05;16.23;;;;;;;-2.81;65.22;95217.59;5055098;28;20033;-81
2021/12/22 07:23:01;;;;;;;30.77;16.00;;;;;;;-2.44;64.98;95221.69;5053698;28;20043;-73
2021/12/22 07:25:27;;;;;;;31.45;14.90;;;;;;;-1.97;63.84;95213.56;5053670;28;20420;-80
2021/12/22 07:27:52;;;;;;;47.20;18.50;;;;;;;-1.56;61.60;95216.34;5054012;28;20428;-82
2021/12/22 07:30:18;;;;;;;32.53;16.55;;;;;;;-1.95;62.74;95212.03;5053937;28;20062;-84
2021/12/22 07:32:43;;;;;;;37.03;17.90;;;;;;;-1.31;61.59;95215.44;5054160;28;20036;-83
2021/12/22 07:35:18;;;;;;;34.83;16.30;;;;;;;-0.93;60.86;95212.09;5053504;28;20099;-77
2021/12/22 07:37:51;;;;;;;40.30;18.08;;;;;;;-1.51;61.04;95209.88;5052775;28;20025;-84
2021/12/22 07:40:19;;;;;;;38.80;19.42;;;;;;;-0.88;60.31;95209.75;5054323;28;20037;-82
2021/12/22 07:42:45;;;;;;;37.60;17.50;;;;;;;-0.93;58.79;95212.09;5054902;28;20036;-83
2021/12/22 07:45:11;;;;;;;40.25;17.58;;;;;;;-0.28;58.52;95206.88;5054152;28;20040;-82
2021/12/22 07:47:37;;;;;;;36.78;17.38;;;;;;;0.32;55.86;95209.19;5053534;28;20025;-82
2021/12/22 07:50:04;;;;;;;34.00;17.52;;;;;;;-0.07;56.69;95207.78;5053918;28;20120;-81
2021/12/22 07:52:30;;;;;;;31.40;15.73;;;;;;;-0.07;55.72;95211.22;5053714;28;20037;-81
2021/12/22 07:54:56;;;;;;;25.10;13.07;;;;;;;-0.41;54.36;95208.53;5053464;28;20101;-83
2021/12/22 07:57:22;;;;;;;23.98;12.10;;;;;;;-0.66;54.13;95206.88;5053253;28;20035;-84
2021/12/22 07:59:48;;;;;;;25.58;13.35;;;;;;;-1.25;56.86;95207.78;5053841;28;20048;-83
2021/12/22 08:02:15;;;;;;;36.28;12.43;;;;;;;-1.27;58.09;95207.41;5053519;28;20485;-84
2021/12/22 08:04:40;;;;;;;19.05;11.75;;;;;;;-1.56;57.15;95211.03;5053663;28;20059;-84
2021/12/22 08:07:07;;;;;;;21.50;12.43;;;;;;;-1.64;58.52;95217.53;5053934;28;20083;-82
2021/12/22 08:09:32;;;;;;;28.10;14.25;;;;;;;-1.21;58.24;95211.94;5053554;28;20032;-81
2021/12/22 08:12:05;;;;;;;30.10;14.00;;;;;;;-1.89;59.00;95223.75;5053259;28;20049;-82
2021/12/22 08:14:34;;;;;;;32.63;15.02;;;;;;;-0.84;57.68;95230.31;5053119;28;20040;-81
2021/12/22 08:17:00;;;;;;;29.67;16.23;;;;;;;-0.44;56.19;95225.34;5052593;28;20090;-81
2021/12/22 08:19:25;;;;;;;32.13;15.88;;;;;;;-0.42;55.93;95223.78;5053636;28;20056;-81
2021/12/22 08:21:51;;;;;;;37.97;15.95;;;;;;;0.98;53.16;95228.47;5053221;28;20028;-77
2021/12/22 08:24:16;;;;;;;32.13;16.08;;;;;;;1.46;50.79;95237.22;5052091;28;20033;-85
2021/12/22 08:26:42;;;;;;;24.30;13.82;;;;;;;3.29;81.58;95243.38;5052664;28;20025;-69
2021/12/22 08:29:08;;;;;;;23.50;12.85;;;;;;;5.67;66.29;95251.94;5056696;28;20098;-70
2021/12/22 08:31:33;;;;;;;26.98;13.68;;;;;;;2.87;47.13;95238.59;5055775;28;20116;-83
2021/12/22 08:33:59;;;;;;;22.60;13.85;;;;;;;1.49;49.74;95233.75;5056923;28;20044;-83
2021/12/22 08:39:11;;;;;;;43.25;14.02;;;;;;;1.63;49.44;95238.84;5056891;28;20094;-83
2021/12/22 08:41:40;;;;;;;30.15;14.65;;;;;;;1.07;49.90;95238.66;5055619;28;20040;-83
2021/12/22 08:44:08;;;;;;;28.63;14.23;;;;;;;1.09;49.97;95237.09;5056588;28;20128;-83
2021/12/22 08:46:36;;;;;;;35.05;15.30;;;;;;;0.98;49.91;95245.28;5057043;28;20039;-83
2021/12/22 08:49:04;;;;;;;31.73;15.38;;;;;;;1.26;49.34;95245.97;5056575;28;20518;-85
2021/12/22 08:51:29;;;;;;;34.58;14.85;;;;;;;1.73;48.48;95237.13;5056370;28;20036;-83
2021/12/22 08:53:55;;;;;;;31.60;14.52;;;;;;;1.58;48.11;95241.22;5057715;28;20029;-82
2021/12/22 08:56:21;;;;;;;29.20;14.57;;;;;;;1.73;48.15;95239.06;5057905;28;20052;-78
2021/12/22 08:58:46;;;;;;;34.03;16.17;;;;;;;1.67;49.14;95241.44;5056677;28;20025;-79
2021/12/22 09:01:12;;;;;;;48.65;19.30;;;;;;;2.00;48.54;95241.59;5056550;28;20053;-80
2021/12/22 09:03:38;;;;;;;35.80;19.80;;;;;;;1.81;48.30;95235.06;5056877;28;20476;-83
2021/12/22 09:06:03;;;;;;;36.85;18.48;;;;;;;1.64;48.43;95240.34;5056171;28;20465;-80
2021/12/22 09:08:29;;;;;;;35.67;18.45;;;;;;;1.03;49.11;95243.31;5061978;28;20446;-79
2021/12/22 09:10:55;;;;;;;39.20;19.45;;;;;;;1.21;49.23;95246.44;5060876;28;20474;-79
2021/12/22 09:13:21;;;;;;;37.28;18.70;;;;;;;1.42;48.62;95239.97;5059516;28;20043;-79
2021/12/22 09:15:47;;;;;;;36.85;19.33;;;;;;;1.36;49.45;95244.28;5059867;28;20502;-79
2021/12/22 09:18:13;;;;;;;35.88;18.15;;;;;;;1.97;47.62;95248.53;5059947;28;20158;-79
2021/12/22 09:20:39;;;;;;;31.92;17.80;;;;;;;1.81;47.37;95246.56;5058200;28;20020;-80
2021/12/22 09:23:04;;;;;;;41.47;18.95;;;;;;;1.38;47.93;95246.53;5055819;28;20033;-81
2021/12/22 09:25:30;;;;;;;33.60;16.83;;;;;;;1.36;48.42;95238.91;5054517;28;20086;-80
2021/12/22 09:27:56;;;;;;;37.70;18.80;;;;;;;1.18;48.48;95233.88;5054517;28;20035;-79
2021/12/22 09:30:21;;;;;;;45.40;19.88;;;;;;;1.52;49.20;95236.34;5055529;28;20099;-79
2021/12/22 09:32:47;;;;;;;42.92;19.33;;;;;;;2.17;47.71;95235.13;5055865;28;20048;-81
2021/12/22 09:35:13;;;;;;;36.40;17.67;;;;;;;2.63;45.76;95231.88;5055453;28;20025;-82
2021/12/22 09:37:38;;;;;;;37.60;19.30;;;;;;;3.13;44.98;95235.34;5055324;28;20025;-82
2021/12/22 09:40:05;;;;;;;33.35;18.48;;;;;;;2.94;44.71;95231.59;5055213;28;20359;-81
2021/12/22 09:42:31;;;;;;;37.65;18.95;;;;;;;3.14;43.83;95224.19;5055221;28;20035;-82
2021/12/22 09:45:00;;;;;;;39.75;19.20;;;;;;;2.99;44.12;95231.09;5055282;28;20025;-82
2021/12/22 09:47:31;;;;;;;38.47;18.05;;;;;;;3.36;43.50;95226.38;5055583;28;20029;-81
2021/12/22 09:52:27;;;;;;;40.67;18.65;;;;;;;3.43;43.56;95217.38;5055054;28;20660;-81
2021/12/22 09:54:56;;;;;;;41.05;19.73;;;;;;;3.54;43.17;95205.19;5055330;28;20511;-81
2021/12/22 09:57:23;;;;;;;43.03;18.88;;;;;;;3.93;41.74;95215.28;5055098;28;20032;-82
2021/12/22 09:59:51;;;;;;;33.13;19.05;;;;;;;4.39;40.81;95218.59;5054274;28;20060;-81
2021/12/22 10:02:18;;;;;;;39.35;19.55;;;;;;;4.71;41.04;95216.91;5055294;28;20111;-81
2021/12/22 10:04:44;;;;;;;39.67;20.25;;;;;;;4.79;40.45;95204.75;5055484;28;20035;-81
2021/12/22 10:07:17;;;;;;;32.10;19.17;;;;;;;4.63;40.73;95207.56;5055594;28;20029;-80
2021/12/22 10:09:47;;;;;;;38.03;20.25;;;;;;;6.10;38.16;95202.00;5060519;28;20473;-81
2021/12/22 10:12:25;;;;;;;39.50;21.17;;;;;;;5.72;37.98;95200.22;5061011;28;20049;-81
2021/12/22 10:15:03;;;;;;;38.53;20.63;;;;;;;7.39;37.81;95200.94;5056918;28;20032;-78
2021/12/22 10:17:41;;;;;;;49.78;22.27;;;;;;;6.92;36.16;95198.16;5055059;28;20028;-79
2021/12/22 10:20:13;;;;;;;40.75;22.42;;;;;;;6.08;37.42;95196.28;5054064;28;20378;-79
2021/12/22 10:22:51;;;;;;;34.03;21.02;;;;;;;5.55;38.52;95195.00;5053858;28;20418;-79
2021/12/22 10:25:18;;;;;;;49.45;23.00;;;;;;;5.90;37.86;95200.34;5055368;28;20485;-79
2021/12/22 10:27:59;;;;;;;37.10;21.80;;;;;;;5.38;38.34;95194.41;5055341;28;20040;-80
2021/12/22 10:30:29;;;;;;;42.50;22.25;;;;;;;5.10;38.05;95189.97;5053825;28;20044;-80
2021/12/22 10:33:08;;;;;;;39.70;22.05;;;;;;;5.18;37.80;95192.00;5055423;28;20120;-80
2021/12/22 10:35:34;;;;;;;40.50;21.55;;;;;;;3.85;40.76;95188.63;5054863;28;20021;-80
2021/12/22 10:38:02;;;;;;;43.63;22.08;;;;;;;3.51;41.44;95181.13;5055010;28;20045;-80
2021/12/22 10:40:33;;;;;;;34.63;22.02;;;;;;;3.78;41.39;95180.03;5054602;28;20025;-80
2021/12/22 10:43:00;;;;;;;48.50;23.03;;;;;;;4.11;40.60;95191.38;5054639;28;20090;-79
2021/12/22 10:45:28;;;;;;;42.92;22.45;;;;;;;3.09;42.70;95181.03;5054976;28;20303;-79
2021/12/22 10:50:42;;;;;;;44.20;22.08;;;;;;;3.14;43.01;95177.84;5055434;28;20187;-76
2021/12/22 10:53:09;;;;;;;41.08;21.88;;;;;;;2.77;43.88;95179.88;5055309;28;20020;-79
2021/12/22 10:55:47;;;;;;;44.65;21.85;;;;;;;2.40;44.88;95165.78;5055582;28;20033;-82
2021/12/22 10:58:22;;;;;;;43.53;21.95;;;;;;;2.31;45.33;95169.78;5055702;28;20037;-83
2021/12/22 11:01:05;;;;;;;44.83;22.33;;;;;;;2.16;45.49;95169.34;5055021;28;20102;-81
2021/12/22 11:03:38;;;;;;;43.63;22.13;;;;;;;2.18;44.96;95156.31;5054235;28;20025;-81
2021/12/22 11:06:10;;;;;;;47.50;22.85;;;;;;;2.00;45.81;95155.91;5056753;28;20024;-77
2021/12/22 11:08:37;;;;;;;45.53;23.85;;;;;;;2.27;45.36;95152.28;5056194;28;20465;-79
2021/12/22 11:11:15;;;;;;;44.28;23.65;;;;;;;1.90;45.74;95154.22;5063054;28;20087;-80
2021/12/22 11:13:41;;;;;;;42.45;23.30;;;;;;;2.13;46.42;95146.06;5071359;28;20025;-84
2021/12/22 11:16:12;;;;;;;45.70;24.17;;;;;;;2.01;45.67;95146.72;5070834;28;20033;-84
2021/12/22 11:18:38;;;;;;;48.67;23.63;;;;;;;2.13;46.28;95146.06;5055209;28;20027;-80
2021/12/22 11:21:10;;;;;;;50.15;23.25;;;;;;;2.07;45.92;95144.31;5054490;28;20096;-80
2021/12/22 11:23:36;;;;;;;49.95;24.90;;;;;;;2.16;46.52;95150.59;5054884;28;20118;-81
2021/12/22 11:26:03;;;;;;;45.53;24.45;;;;;;;2.02;45.63;95148.97;5053229;28;20454;-82
2021/12/22 11:28:29;;;;;;;52.67;25.45;;;;;;;1.83;46.22;95137.13;5054195;28;20025;-80
2021/12/22 11:30:56;;;;;;;48.25;25.35;;;;;;;1.88;46.66;95143.16;5053835;28;20087;-81
2021/12/22 11:33:23;;;;;;;46.53;24.02;;;;;;;1.97;45.94;95135.31;5053730;28;20021;-81
2021/12/22 11:35:49;;;;;;;49.83;24.83;;;;;;;2.06;46.58;95126.72;5053266;28;20048;-80
2021/12/22 11:38:15;;;;;;;52.13;23.52;;;;;;;2.16;45.23;95131.09;5053209;28;20056;-79
2021/12/22 11:40:44;;;;;;;48.08;24.80;;;;;;;1.73;47.42;95127.38;5053255;28;20024;-81